Disclaimer

Please do not use the information listed here in-flight or in-navigation, as they are not provided to us by the airports but are provided by volunteers, so they might be outdated.

Search


Regions


Airport information page

Radio informations:
Tower (TWR) - 118.45 MHz
DASHT E NAZ INFO - 126.85 MHz

Airport informations:
Latitude: 36° 38' 09.00" N
Longitude: 053° 11' 37.00" E
Elevation: 35 feet - 11 meters
Operating hours: Remarks
Operating agency: Civil government, landing fees and diplomatic clearance may be required
Timezone: UTC+3:30
Fuel: N/A

Runway information:
16/34 - 8688 x 148 feet< - >2648 x 45 meters

Recent METARs:
OINZ 180800Z 11004KT 6000 FEW035 19/13 Q1021
OINZ 180900Z 35004KT 6000 FEW030 20/13 Q1021
OINZ 180900Z 35004KT 6000 FEW030 20/13 Q1021

Airport on the map: